Time;durP1;ratioP1;P1;durP2;ratioP2;P2;SDS_P1;SDS_P2;PMS_P1;PMS_P2;Temp;Humidity;BMP_temperature;BMP_pressure;BME280_temperature;BME280_humidity;BME280_pressure;Samples;Min_cycle;Max_cycle;Signal;HPM_P1;HPM_P2
2021/07/20 00:05:31;;;;;;;17.83;15.80;;;18.50;99.90;;;;;;6154678;23;20409;-82
2021/07/20 00:08:04;;;;;;;19.57;16.57;;;18.40;99.90;;;;;;6172741;23;20401;-82
2021/07/20 00:10:44;;;;;;;17.00;15.20;;;18.30;99.90;;;;;;6166860;23;20477;-83
2021/07/20 00:16:34;;;;;;;22.43;16.43;;;18.30;99.90;;;;;;6117126;23;20472;-82
2021/07/20 00:19:09;;;;;;;20.03;15.60;;;18.20;99.90;;;;;;6160827;23;20436;-82
2021/07/20 00:22:09;;;;;;;18.30;15.63;;;18.20;99.90;;;;;;6160848;23;20452;-82
2021/07/20 00:24:41;;;;;;;21.30;18.47;;;18.20;99.90;;;;;;6155928;23;20424;-82
2021/07/20 00:27:30;;;;;;;19.10;16.90;;;18.10;99.90;;;;;;6160477;23;20438;-83
2021/07/20 00:30:34;;;;;;;18.50;16.43;;;18.10;99.90;;;;;;6160625;23;20489;-82
2021/07/20 00:37:15;;;;;;;20.80;15.20;;;18.00;99.90;;;;;;5847028;24;20514;-82
2021/07/20 00:42:45;;;;;;;19.70;16.80;;;18.00;99.90;;;;;;6160494;23;20496;-82
2021/07/20 00:45:38;;;;;;;19.37;16.83;;;18.00;99.90;;;;;;6161487;23;20417;-82
2021/07/20 00:48:32;;;;;;;17.70;14.60;;;17.90;99.90;;;;;;6187571;23;20426;-82
2021/07/20 00:51:12;;;;;;;17.50;15.00;;;17.90;99.90;;;;;;6192378;23;20440;-82
2021/07/20 00:53:50;;;;;;;18.60;16.40;;;17.90;99.90;;;;;;6192317;23;20398;-83
2021/07/20 00:59:50;;;;;;;17.30;15.50;;;17.90;99.90;;;;;;6190531;23;20420;-83
2021/07/20 01:02:49;;;;;;;18.93;16.90;;;17.80;99.90;;;;;;6187468;23;20414;-83
2021/07/20 01:05:59;;;;;;;25.30;17.27;;;17.70;99.90;;;;;;6192114;23;20463;-83
2021/07/20 01:09:00;;;;;;;;;;;;;;;;;;;;;
2021/07/20 01:15:05;;;;;;;19.30;15.47;;;17.60;99.90;;;;;;6114005;23;20402;-83
2021/07/20 01:24:36;;;;;;;19.33;15.00;;;17.50;99.90;;;;;;6188838;23;20466;-82
2021/07/20 01:30:45;;;;;;;20.33;16.10;;;17.40;99.90;;;;;;6189215;23;20410;-83
2021/07/20 01:37:06;;;;;;;16.50;14.87;;;17.20;99.90;;;;;;5902086;24;20809;-82
2021/07/20 01:40:00;;;;;;;17.73;14.40;;;17.20;99.90;;;;;;6190463;23;20933;-82
2021/07/20 01:46:26;;;;;;;18.03;15.73;;;17.20;99.90;;;;;;6099646;23;20997;-82
2021/07/20 01:53:23;;;;;;;18.40;16.60;;;17.10;99.90;;;;;;5958404;23;20719;-83
2021/07/20 01:55:55;;;;;;;17.10;15.03;;;17.00;99.90;;;;;;6093067;23;20508;-82
2021/07/20 02:09:31;;;;;;;18.70;14.87;;;16.80;99.90;;;;;;5955980;24;20460;-82
2021/07/20 02:16:20;;;;;;;21.60;15.10;;;16.60;99.90;;;;;;5956756;24;20419;-82
2021/07/20 02:22:46;;;;;;;20.43;15.90;;;16.60;99.90;;;;;;5982991;23;20416;-82
2021/07/20 02:29:31;;;;;;;19.57;15.13;;;16.50;99.90;;;;;;6060275;23;20450;-82
2021/07/20 02:32:26;;;;;;;17.53;15.00;;;16.50;99.90;;;;;;6017066;23;20455;-82
2021/07/20 03:36:28;;;;;;;15.10;13.27;;;15.70;99.90;;;;;;6009688;23;20408;-82
2021/07/20 03:42:45;;;;;;;18.57;14.90;;;15.60;99.90;;;;;;5887606;24;20773;-82
2021/07/20 03:45:53;;;;;;;22.53;15.40;;;15.60;99.90;;;;;;5956416;24;20419;-82
2021/07/20 03:48:54;;;;;;;16.50;14.70;;;15.60;99.90;;;;;;6048638;23;20482;-82
2021/07/20 03:55:37;;;;;;;17.37;13.80;;;15.60;99.90;;;;;;6012432;23;20522;-82
2021/07/20 04:35:05;;;;;;;19.20;14.63;;;15.40;99.90;;;;;;6094248;23;20972;-82
2021/07/20 04:47:44;;;;;;;16.80;15.03;;;15.50;99.90;;;;;;6177116;23;20536;-81
2021/07/20 04:50:14;;;;;;;18.17;14.63;;;15.50;99.90;;;;;;6223259;23;20724;-82
2021/07/20 04:52:41;;;;;;;16.77;14.37;;;15.50;99.90;;;;;;6223387;23;20451;-82
2021/07/20 04:55:11;;;;;;;15.00;13.03;;;15.50;99.90;;;;;;6224060;23;20408;-82
2021/07/20 04:57:38;;;;;;;16.10;14.50;;;15.50;99.90;;;;;;6223896;23;20425;-82
2021/07/20 05:00:06;;;;;;;18.87;14.63;;;15.60;99.90;;;;;;6223509;23;20939;-81
2021/07/20 05:02:36;;;;;;;16.27;13.00;;;15.60;99.90;;;;;;6223672;23;20411;-82
2021/07/20 05:05:05;;;;;;;15.17;13.03;;;15.60;99.90;;;;;;6224308;23;20405;-82
2021/07/20 05:07:32;;;;;;;16.90;15.10;;;15.70;99.90;;;;;;6223079;23;20458;-82
2021/07/20 05:09:59;;;;;;;16.17;12.90;;;15.70;99.90;;;;;;6224128;23;20958;-82
2021/07/20 05:12:27;;;;;;;14.47;12.60;;;15.80;99.90;;;;;;6224024;23;20409;-82
2021/07/20 05:14:54;;;;;;;17.77;14.30;;;15.80;99.90;;;;;;6223642;23;20431;-82
2021/07/20 05:17:23;;;;;;;15.70;13.93;;;15.90;99.90;;;;;;6223616;23;20426;-82
2021/07/20 05:19:50;;;;;;;15.47;13.87;;;15.80;99.90;;;;;;6223967;23;20417;-81
2021/07/20 05:22:20;;;;;;;17.87;15.30;;;15.80;99.90;;;;;;6223166;23;20408;-82
2021/07/20 05:24:47;;;;;;;16.27;13.10;;;15.90;99.90;;;;;;6222997;23;20402;-82
2021/07/20 05:27:15;;;;;;;17.40;14.27;;;15.90;99.90;;;;;;6223546;23;20434;-82
2021/07/20 05:29:46;;;;;;;15.90;13.40;;;16.00;99.90;;;;;;6223888;23;20405;-82
2021/07/20 05:32:16;;;;;;;15.27;13.43;;;16.00;99.90;;;;;;6223152;23;20400;-82
2021/07/20 05:34:46;;;;;;;17.60;13.63;;;16.00;99.90;;;;;;6223805;23;20383;-82
2021/07/20 05:37:14;;;;;;;15.10;13.60;;;16.00;99.90;;;;;;6223556;23;20429;-82
2021/07/20 05:39:41;;;;;;;14.57;13.10;;;16.00;99.90;;;;;;6223530;23;20413;-82
2021/07/20 05:42:10;;;;;;;14.03;11.67;;;16.10;99.90;;;;;;6223334;23;20512;-82
2021/07/20 05:44:37;;;;;;;14.73;12.63;;;16.10;99.90;;;;;;6223419;23;20411;-82
2021/07/20 05:47:05;;;;;;;17.67;12.97;;;16.10;99.90;;;;;;6223061;23;20444;-82
2021/07/20 05:49:35;;;;;;;15.63;12.53;;;16.20;99.90;;;;;;6223380;23;20406;-82
2021/07/20 05:52:02;;;;;;;16.20;12.93;;;16.30;99.90;;;;;;6223776;23;20410;-82
2021/07/20 05:54:30;;;;;;;13.83;12.50;;;16.30;99.90;;;;;;6223604;23;20453;-82
2021/07/20 05:56:59;;;;;;;17.33;13.10;;;16.40;99.90;;;;;;6223621;23;20430;-83
2021/07/20 05:59:26;;;;;;;14.00;12.57;;;16.50;99.90;;;;;;6223164;23;20505;-82
2021/07/20 06:01:54;;;;;;;14.63;12.80;;;16.60;99.90;;;;;;6223760;23;20422;-84
2021/07/20 06:04:25;;;;;;;18.37;13.10;;;16.60;99.90;;;;;;6219960;23;20406;-83
2021/07/20 06:06:51;;;;;;;14.13;12.17;;;16.60;99.90;;;;;;6217660;23;20434;-83
2021/07/20 06:09:20;;;;;;;13.60;12.30;;;16.60;99.90;;;;;;6219001;23;21005;-84
2021/07/20 06:11:49;;;;;;;16.30;12.43;;;16.70;99.90;;;;;;6219028;23;20506;-81
2021/07/20 06:14:18;;;;;;;17.50;12.80;;;16.70;99.90;;;;;;6230515;23;20443;-82
2021/07/20 06:16:47;;;;;;;15.60;14.00;;;16.70;99.90;;;;;;6228518;23;20434;-81
2021/07/20 06:19:14;;;;;;;13.97;12.40;;;16.80;99.90;;;;;;6231354;23;20414;-81
2021/07/20 06:21:44;;;;;;;15.00;12.10;;;16.80;99.90;;;;;;6231257;23;20419;-81
2021/07/20 06:24:12;;;;;;;14.57;12.43;;;16.90;99.90;;;;;;6231466;23;20410;-82
2021/07/20 06:26:39;;;;;;;16.33;13.07;;;16.90;99.90;;;;;;6232317;23;20431;-81
2021/07/20 06:29:09;;;;;;;13.33;11.63;;;17.00;99.90;;;;;;6232035;23;20430;-81
2021/07/20 06:31:40;;;;;;;13.87;12.37;;;17.00;99.90;;;;;;6227962;23;20476;-80
2021/07/20 06:34:07;;;;;;;12.80;11.30;;;17.10;99.90;;;;;;6221518;23;20435;-80
2021/07/20 06:36:35;;;;;;;12.47;11.17;;;17.20;99.90;;;;;;6221433;23;20547;-80
2021/07/20 06:39:04;;;;;;;13.63;12.00;;;17.20;99.90;;;;;;6222671;23;20419;-81
2021/07/20 06:41:34;;;;;;;14.60;11.70;;;17.40;99.90;;;;;;6221762;23;20952;-80
2021/07/20 06:44:01;;;;;;;13.40;11.33;;;17.40;99.90;;;;;;6221855;23;20399;-81
2021/07/20 06:46:29;;;;;;;15.70;11.90;;;17.50;99.90;;;;;;6223651;23;20443;-84
2021/07/20 06:48:56;;;;;;;13.80;12.40;;;17.60;99.90;;;;;;6225488;23;20902;-82
2021/07/20 06:51:24;;;;;;;14.23;12.83;;;17.70;99.90;;;;;;6224973;23;20758;-80
2021/07/20 06:53:52;;;;;;;17.03;12.30;;;17.80;99.90;;;;;;6223027;23;20451;-82
2021/07/20 06:56:26;;;;;;;16.03;11.77;;;17.90;99.90;;;;;;6223495;23;20436;-82
2021/07/20 06:58:53;;;;;;;17.57;13.20;;;17.90;99.90;;;;;;6224402;23;20403;-82
2021/07/20 07:01:22;;;;;;;17.47;11.70;;;18.10;99.90;;;;;;6223995;23;20418;-82
2021/07/20 07:03:54;;;;;;;17.37;12.53;;;18.20;99.90;;;;;;6223393;23;20412;-82
2021/07/20 07:06:24;;;;;;;15.07;11.27;;;18.30;99.90;;;;;;6223884;23;20435;-82
2021/07/20 07:08:51;;;;;;;13.70;10.93;;;18.40;99.90;;;;;;6223721;23;20475;-82
2021/07/20 07:11:18;;;;;;;12.80;11.43;;;18.40;99.90;;;;;;6225215;23;20412;-82
2021/07/20 07:13:47;;;;;;;16.40;11.80;;;18.50;99.90;;;;;;6223537;23;20458;-82
2021/07/20 07:16:14;;;;;;;23.63;12.10;;;18.50;99.90;;;;;;6223667;23;20417;-82
2021/07/20 07:18:43;;;;;;;11.97;10.63;;;18.60;99.90;;;;;;6223164;23;20419;-82
2021/07/20 07:21:11;;;;;;;11.83;10.37;;;18.70;99.90;;;;;;6223782;23;20412;-82
2021/07/20 07:23:39;;;;;;;15.43;12.40;;;18.70;99.90;;;;;;6223468;23;20440;-82
2021/07/20 07:26:10;;;;;;;15.10;13.47;;;18.70;99.90;;;;;;6223592;23;20428;-82
2021/07/20 07:28:39;;;;;;;12.83;11.63;;;18.80;99.90;;;;;;6224313;23;20401;-82
2021/07/20 07:31:09;;;;;;;14.07;12.40;;;18.80;99.90;;;;;;6223608;23;20413;-82
2021/07/20 07:33:36;;;;;;;15.17;11.73;;;18.80;99.90;;;;;;6229993;22;20435;-82
2021/07/20 07:36:03;;;;;;;12.17;11.00;;;18.90;99.90;;;;;;6239081;23;20403;-82
2021/07/20 07:38:31;;;;;;;13.40;11.33;;;19.00;99.90;;;;;;6236453;23;20562;-82
2021/07/20 07:40:58;;;;;;;11.90;10.70;;;19.00;99.90;;;;;;6225381;23;20428;-82
2021/07/20 07:43:29;;;;;;;11.37;10.17;;;19.10;99.90;;;;;;6222059;23;20420;-82
2021/07/20 07:45:58;;;;;;;12.43;11.13;;;19.10;99.90;;;;;;6222609;23;20400;-82
2021/07/20 07:48:28;;;;;;;12.00;9.60;;;19.20;99.90;;;;;;6223565;23;20393;-82
2021/07/20 07:50:56;;;;;;;11.80;10.60;;;19.30;99.90;;;;;;6223839;23;20472;-82
2021/07/20 07:53:24;;;;;;;12.93;11.17;;;19.40;99.90;;;;;;6222902;23;20471;-82
2021/07/20 07:55:51;;;;;;;11.70;9.90;;;19.40;99.90;;;;;;6222836;23;20412;-82
2021/07/20 07:58:18;;;;;;;10.97;9.83;;;19.50;99.90;;;;;;6223347;23;20409;-82
2021/07/20 08:00:48;;;;;;;12.10;10.23;;;19.60;99.90;;;;;;6223014;23;20419;-82
2021/07/20 08:03:17;;;;;;;15.70;10.47;;;19.60;99.90;;;;;;6223306;23;20407;-82
2021/07/20 08:05:46;;;;;;;12.30;9.43;;;19.70;99.90;;;;;;6224713;23;20408;-82
2021/07/20 08:08:15;;;;;;;12.37;11.07;;;19.80;99.90;;;;;;6223843;23;20419;-82
2021/07/20 08:10:44;;;;;;;13.20;9.67;;;19.90;99.90;;;;;;6224653;23;20407;-82
2021/07/20 08:13:13;;;;;;;13.40;10.40;;;19.90;99.90;;;;;;6223436;23;20399;-81
2021/07/20 08:15:40;;;;;;;11.80;10.67;;;19.90;99.90;;;;;;6223828;23;20412;-82
2021/07/20 08:18:08;;;;;;;11.50;10.30;;;20.10;99.90;;;;;;6223041;23;20462;-82
2021/07/20 08:20:36;;;;;;;10.73;9.70;;;20.10;99.90;;;;;;6226055;23;20411;-81
2021/07/20 08:23:05;;;;;;;12.60;10.47;;;20.20;99.90;;;;;;6225084;23;20583;-82
2021/07/20 08:25:36;;;;;;;12.47;9.43;;;20.30;99.90;;;;;;6223311;23;20405;-82
2021/07/20 08:28:08;;;;;;;14.23;10.70;;;20.30;99.90;;;;;;6223476;23;20469;-82
2021/07/20 08:30:38;;;;;;;12.83;10.10;;;20.40;99.90;;;;;;6223482;23;20396;-82
2021/07/20 08:33:07;;;;;;;10.27;9.27;;;20.50;99.90;;;;;;6223583;23;20404;-82
2021/07/20 08:35:34;;;;;;;13.07;9.70;;;20.60;99.90;;;;;;6223848;23;20451;-82
2021/07/20 08:38:06;;;;;;;10.97;9.90;;;20.80;99.90;;;;;;6224032;23;20429;-82
2021/07/20 08:40:51;;;;;;;11.90;9.10;;;20.90;99.90;;;;;;6222928;23;20391;-82
2021/07/20 08:43:27;;;;;;;10.43;9.43;;;21.00;99.90;;;;;;6222654;23;20879;-82
2021/07/20 08:46:10;;;;;;;10.33;9.33;;;21.20;99.90;;;;;;6222956;23;20401;-82
2021/07/20 08:48:44;;;;;;;9.70;8.70;;;21.30;99.90;;;;;;6224077;23;20485;-82
2021/07/20 08:51:14;;;;;;;12.23;9.30;;;21.30;99.10;;;;;;6223731;23;20404;-82
2021/07/20 08:53:50;;;;;;;10.67;8.30;;;21.40;98.80;;;;;;6222797;23;20449;-82
2021/07/20 08:56:19;;;;;;;9.57;7.80;;;21.40;99.10;;;;;;6223572;23;20433;-82
2021/07/20 08:58:49;;;;;;;9.90;8.90;;;21.40;97.30;;;;;;6223431;23;20414;-82
2021/07/20 09:01:19;;;;;;;11.60;8.97;;;21.50;96.90;;;;;;6225554;23;20411;-82
2021/07/20 09:04:00;;;;;;;11.23;8.47;;;21.60;97.90;;;;;;6225662;23;20390;-82
2021/07/20 09:06:32;;;;;;;11.80;10.10;;;21.60;97.40;;;;;;6226333;23;20440;-82
2021/07/20 09:09:07;;;;;;;11.10;9.87;;;21.60;97.50;;;;;;6225852;23;20402;-82
2021/07/20 09:11:41;;;;;;;12.00;9.90;;;21.60;97.40;;;;;;6225297;23;20399;-82
2021/07/20 09:14:14;;;;;;;11.47;9.57;;;21.70;97.70;;;;;;6225615;23;20746;-81
2021/07/20 09:16:45;;;;;;;9.90;9.00;;;21.70;98.10;;;;;;6225191;23;20773;-82
2021/07/20 09:19:26;;;;;;;13.37;9.40;;;21.70;97.60;;;;;;6225204;23;20909;-82
2021/07/20 09:21:57;;;;;;;12.97;11.27;;;21.80;97.80;;;;;;6224614;23;20776;-82
2021/07/20 09:24:32;;;;;;;14.53;13.00;;;21.90;97.60;;;;;;6225027;23;20386;-82
2021/07/20 09:27:11;;;;;;;11.47;10.47;;;21.90;97.10;;;;;;6224429;23;20432;-82
2021/07/20 09:29:39;;;;;;;11.83;10.33;;;21.90;96.70;;;;;;6224915;23;20766;-82
2021/07/20 09:32:14;;;;;;;12.73;9.87;;;21.90;96.40;;;;;;6224576;23;20469;-82
2021/07/20 09:35:01;;;;;;;11.83;10.53;;;22.00;96.70;;;;;;6224520;23;20433;-82
2021/07/20 09:37:33;;;;;;;13.17;10.30;;;22.00;96.90;;;;;;6223987;23;20430;-82
2021/07/20 09:40:18;;;;;;;12.47;10.83;;;22.20;97.50;;;;;;6223632;23;20857;-82
2021/07/20 09:42:54;;;;;;;13.07;11.40;;;22.40;97.00;;;;;;6224024;23;20459;-82
2021/07/20 09:45:25;;;;;;;14.40;11.40;;;22.50;96.80;;;;;;6224221;23;20388;-82
2021/07/20 09:48:00;;;;;;;12.63;10.33;;;22.60;97.20;;;;;;6223280;23;20435;-82
2021/07/20 09:50:28;;;;;;;12.67;11.20;;;22.80;95.90;;;;;;6224430;23;20401;-82
2021/07/20 09:53:31;;;;;;;14.77;13.20;;;22.80;96.20;;;;;;6223870;23;20464;-82
2021/07/20 09:56:16;;;;;;;11.53;10.43;;;23.00;95.30;;;;;;6223742;23;20437;-82
2021/07/20 09:58:52;;;;;;;13.80;12.50;;;23.10;95.20;;;;;;6224036;23;20402;-82
2021/07/20 10:01:25;;;;;;;11.80;10.80;;;23.20;95.20;;;;;;6223297;23;20737;-82
2021/07/20 10:03:57;;;;;;;13.50;10.50;;;23.30;95.50;;;;;;6224123;23;20434;-82
2021/07/20 10:06:35;;;;;;;12.50;11.40;;;23.20;94.50;;;;;;6224483;23;20459;-82
2021/07/20 10:09:06;;;;;;;11.00;9.90;;;23.30;94.40;;;;;;6224201;23;20387;-82
2021/07/20 10:11:44;;;;;;;14.00;12.60;;;23.40;94.60;;;;;;6224420;23;20490;-82
2021/07/20 10:14:32;;;;;;;14.10;11.50;;;23.60;94.40;;;;;;6224652;23;20429;-82
2021/07/20 10:17:12;;;;;;;11.70;10.63;;;23.70;94.50;;;;;;6224354;23;20928;-82
2021/07/20 10:19:47;;;;;;;13.70;12.30;;;23.70;94.10;;;;;;6224271;23;20389;-82
2021/07/20 10:22:16;;;;;;;13.20;11.90;;;23.70;94.00;;;;;;6223950;23;20682;-82
2021/07/20 10:24:47;;;;;;;12.40;11.20;;;23.60;93.80;;;;;;6224077;23;20407;-83
2021/07/20 10:27:21;;;;;;;14.37;12.97;;;23.60;94.70;;;;;;6224890;23;20436;-82
2021/07/20 10:29:53;;;;;;;13.17;11.77;;;23.70;93.70;;;;;;6224316;23;20931;-82
2021/07/20 10:32:24;;;;;;;13.23;11.17;;;23.70;93.50;;;;;;6223979;23;20400;-82
2021/07/20 10:34:56;;;;;;;13.37;11.97;;;23.70;93.80;;;;;;6224234;23;20435;-82
2021/07/20 10:37:28;;;;;;;12.67;11.37;;;23.90;94.20;;;;;;6224446;23;20436;-82
2021/07/20 10:40:00;;;;;;;16.33;12.53;;;23.90;93.80;;;;;;6224798;23;20397;-82
2021/07/20 10:42:36;;;;;;;13.13;12.00;;;24.00;93.10;;;;;;6224152;23;20440;-82
2021/07/20 10:45:05;;;;;;;14.13;12.70;;;24.00;93.60;;;;;;6224918;23;20393;-82
2021/07/20 10:47:39;;;;;;;13.70;12.40;;;24.00;92.90;;;;;;6229514;23;20497;-83
2021/07/20 10:50:10;;;;;;;13.83;12.43;;;23.90;92.50;;;;;;6232349;23;20386;-83
2021/07/20 10:52:48;;;;;;;16.27;12.03;;;24.00;92.80;;;;;;6232296;23;20393;-82
2021/07/20 10:55:22;;;;;;;12.40;11.13;;;24.30;93.20;;;;;;6233417;23;20429;-82
2021/07/20 10:57:58;;;;;;;16.00;14.30;;;24.60;93.00;;;;;;6233249;23;20421;-83
2021/07/20 11:00:33;;;;;;;14.77;13.23;;;24.80;91.90;;;;;;6233822;23;20392;-83
2021/07/20 11:03:09;;;;;;;15.03;13.10;;;25.10;92.60;;;;;;6232987;23;20411;-82
2021/07/20 11:05:38;;;;;;;13.30;11.90;;;25.40;92.40;;;;;;6232724;23;20398;-83
2021/07/20 11:08:08;;;;;;;12.70;11.40;;;25.80;91.90;;;;;;6232564;23;20490;-83
2021/07/20 11:10:37;;;;;;;14.67;13.27;;;26.10;89.60;;;;;;6232812;23;20420;-83
2021/07/20 11:13:07;;;;;;;13.23;11.97;;;26.20;89.60;;;;;;6232376;23;20409;-83
2021/07/20 11:15:37;;;;;;;13.47;12.07;;;26.10;88.70;;;;;;6232470;23;20507;-83
2021/07/20 11:18:07;;;;;;;12.97;11.73;;;25.90;88.80;;;;;;6232724;23;20427;-84
2021/07/20 11:20:35;;;;;;;13.63;12.30;;;25.70;89.70;;;;;;6233271;23;20393;-83
2021/07/20 11:23:03;;;;;;;13.33;11.77;;;25.90;89.40;;;;;;6232672;23;20410;-83
2021/07/20 11:25:31;;;;;;;12.80;11.50;;;26.30;88.70;;;;;;6232130;23;20415;-83
2021/07/20 11:27:59;;;;;;;12.50;11.30;;;26.70;85.70;;;;;;6232887;23;20437;-84
2021/07/20 11:30:32;;;;;;;13.73;12.10;;;27.30;85.40;;;;;;6233055;23;20910;-83
2021/07/20 11:33:02;;;;;;;11.80;10.63;;;27.60;81.10;;;;;;6233152;23;20722;-84
2021/07/20 11:35:32;;;;;;;13.17;11.80;;;28.00;80.50;;;;;;6234132;23;20439;-83
2021/07/20 11:38:05;;;;;;;15.93;13.77;;;28.20;77.30;;;;;;6233907;23;20523;-82
2021/07/20 11:40:39;;;;;;;14.50;13.10;;;28.60;77.50;;;;;;6233567;23;20696;-82
2021/07/20 11:43:09;;;;;;;13.03;11.77;;;28.80;78.10;;;;;;6233459;23;20465;-84
2021/07/20 11:45:46;;;;;;;11.73;10.70;;;28.90;76.30;;;;;;6233162;23;20382;-83
2021/07/20 11:48:13;;;;;;;13.83;12.47;;;29.00;77.00;;;;;;6235711;23;20422;-84
2021/07/20 11:50:45;;;;;;;16.00;12.07;;;29.20;74.00;;;;;;6240877;23;20405;-83
2021/07/20 11:53:23;;;;;;;13.20;11.90;;;29.60;74.10;;;;;;6240309;23;20390;-83
2021/07/20 11:55:55;;;;;;;13.43;12.17;;;29.90;70.40;;;;;;6235483;23;20498;-83
2021/07/20 11:59:00;;;;;;;13.67;11.90;;;29.70;70.10;;;;;;6234095;23;20393;-83
2021/07/20 12:02:18;;;;;;;14.10;12.87;;;29.30;68.90;;;;;;6171949;23;20417;-83
2021/07/20 12:05:18;;;;;;;13.70;12.27;;;28.70;72.30;;;;;;6234343;23;20423;-83
2021/07/20 12:07:49;;;;;;;13.30;12.00;;;28.60;72.10;;;;;;6233947;23;20431;-83
2021/07/20 12:10:32;;;;;;;12.47;11.23;;;28.80;75.80;;;;;;6235546;23;20395;-84
2021/07/20 12:13:02;;;;;;;13.27;12.07;;;29.40;72.50;;;;;;6235251;23;20395;-84
2021/07/20 12:15:29;;;;;;;13.93;12.10;;;30.10;70.80;;;;;;6236178;23;20443;-83
2021/07/20 12:17:58;;;;;;;12.97;11.67;;;30.70;66.80;;;;;;6236053;23;20967;-84
2021/07/20 12:20:27;;;;;;;13.47;12.30;;;30.70;64.10;;;;;;6235450;23;20410;-84
2021/07/20 12:22:55;;;;;;;13.50;12.23;;;30.80;65.10;;;;;;6235176;23;20442;-83
2021/07/20 12:25:24;;;;;;;13.40;12.30;;;31.00;60.30;;;;;;6229224;23;20415;-83
2021/07/20 12:27:53;;;;;;;13.00;11.73;;;31.00;61.40;;;;;;6229703;23;20431;-82
2021/07/20 12:30:22;;;;;;;12.10;10.90;;;31.10;59.90;;;;;;6233530;23;20475;-84
2021/07/20 12:32:50;;;;;;;14.03;12.80;;;31.40;59.40;;;;;;6224785;23;20413;-86
2021/07/20 12:35:19;;;;;;;13.30;12.10;;;31.70;59.50;;;;;;6233776;23;20451;-87
2021/07/20 12:38:01;;;;;;;13.30;12.10;;;32.00;59.90;;;;;;6236143;23;21004;-86
2021/07/20 12:40:29;;;;;;;14.57;13.10;;;32.20;59.00;;;;;;6218618;23;20411;-82
2021/07/20 12:43:07;;;;;;;13.20;12.10;;;32.00;57.90;;;;;;6221447;23;20417;-85
2021/07/20 12:45:34;;;;;;;13.40;12.20;;;31.70;59.20;;;;;;6221102;23;20449;-85
2021/07/20 12:48:03;;;;;;;14.37;13.13;;;31.50;60.00;;;;;;6220664;23;20975;-82
2021/07/20 12:50:30;;;;;;;12.73;11.43;;;31.50;60.00;;;;;;6222406;23;20412;-82
2021/07/20 12:52:58;;;;;;;14.60;13.10;;;31.50;58.50;;;;;;6221374;23;20418;-83
2021/07/20 12:55:25;;;;;;;12.13;11.13;;;31.60;59.50;;;;;;6220003;23;20452;-86
2021/07/20 12:57:56;;;;;;;12.13;11.10;;;31.70;58.20;;;;;;6216480;23;20474;-87
2021/07/20 13:00:24;;;;;;;14.40;13.13;;;31.80;57.80;;;;;;6217767;23;20406;-87
2021/07/20 13:02:52;;;;;;;12.90;11.80;;;32.00;55.60;;;;;;6220621;23;20422;-83
2021/07/20 13:05:20;;;;;;;13.83;12.50;;;32.40;55.80;;;;;;6219474;23;20474;-82
2021/07/20 13:07:48;;;;;;;12.93;11.63;;;32.80;55.70;;;;;;6224491;23;20435;-84
2021/07/20 13:10:17;;;;;;;13.00;11.80;;;33.00;54.70;;;;;;6221871;23;20421;-83
2021/07/20 13:12:45;;;;;;;12.20;11.20;;;32.80;54.70;;;;;;6220590;23;20422;-84
2021/07/20 13:15:19;;;;;;;11.60;10.70;;;32.70;54.70;;;;;;6224772;23;20446;-84
2021/07/20 13:17:49;;;;;;;12.60;11.47;;;32.70;54.20;;;;;;6223161;23;20439;-79
2021/07/20 13:20:16;;;;;;;13.23;12.17;;;32.40;54.30;;;;;;6225380;23;20398;-83
2021/07/20 13:22:42;;;;;;;14.27;12.97;;;32.20;54.30;;;;;;6222971;23;20410;-85
2021/07/20 13:25:12;;;;;;;13.07;11.80;;;32.30;54.10;;;;;;6223024;23;20894;-83
2021/07/20 13:27:41;;;;;;;13.20;11.97;;;32.50;54.50;;;;;;6221918;23;20437;-82
2021/07/20 13:30:10;;;;;;;13.30;12.00;;;33.00;52.70;;;;;;6222088;23;20407;-83
2021/07/20 13:32:38;;;;;;;12.73;11.53;;;33.10;51.80;;;;;;6220596;23;20418;-83
2021/07/20 13:35:06;;;;;;;12.77;11.60;;;33.30;50.80;;;;;;6219979;23;20449;-84
2021/07/20 13:37:33;;;;;;;15.47;13.93;;;33.40;50.40;;;;;;6218077;23;20443;-79
2021/07/20 13:40:01;;;;;;;11.57;10.57;;;33.70;52.20;;;;;;6218585;23;20420;-83
2021/07/20 13:42:29;;;;;;;12.33;11.23;;;34.50;51.80;;;;;;6220417;23;20416;-81
2021/07/20 13:45:00;;;;;;;11.57;10.60;;;35.20;49.40;;;;;;6222819;23;20416;-83
2021/07/20 13:47:29;;;;;;;15.47;13.93;;;35.30;48.10;;;;;;6222307;23;20441;-83
2021/07/20 13:49:59;;;;;;;13.47;12.27;;;34.90;46.80;;;;;;6223497;23;20409;-83
2021/07/20 13:52:27;;;;;;;11.50;10.60;;;35.00;47.60;;;;;;6221068;23;20393;-84
2021/07/20 13:54:59;;;;;;;11.77;10.67;;;35.10;46.60;;;;;;6224096;23;20733;-82
2021/07/20 13:57:26;;;;;;;11.07;10.07;;;35.10;43.20;;;;;;6223878;23;20429;-82
2021/07/20 13:59:58;;;;;;;12.80;11.57;;;34.80;44.10;;;;;;6224830;23;20477;-83
2021/07/20 14:02:25;;;;;;;10.90;9.90;;;34.80;43.80;;;;;;6219825;23;20393;-83
2021/07/20 14:04:54;;;;;;;12.90;11.80;;;35.00;43.70;;;;;;6224059;23;20401;-83
2021/07/20 14:07:22;;;;;;;11.60;10.60;;;34.90;43.10;;;;;;6225187;23;20451;-83
2021/07/20 14:09:51;;;;;;;12.67;11.60;;;34.70;43.80;;;;;;6222641;23;20409;-83
2021/07/20 14:12:19;;;;;;;10.90;10.00;;;34.70;44.40;;;;;;6224961;23;20411;-82
2021/07/20 14:14:48;;;;;;;12.17;10.87;;;34.60;44.00;;;;;;6223196;23;20466;-83
2021/07/20 14:17:17;;;;;;;11.73;10.63;;;34.60;44.70;;;;;;6221799;23;20455;-83
2021/07/20 14:19:45;;;;;;;12.80;11.50;;;35.00;45.20;;;;;;6222026;23;20409;-84
2021/07/20 14:22:18;;;;;;;11.77;10.67;;;35.60;43.50;;;;;;6223028;23;20409;-84
2021/07/20 14:24:46;;;;;;;11.87;10.87;;;36.00;43.30;;;;;;6222490;23;20463;-83
2021/07/20 14:27:13;;;;;;;11.80;10.80;;;36.10;42.90;;;;;;6221036;23;20417;-83
2021/07/20 14:29:43;;;;;;;11.90;10.80;;;35.90;42.60;;;;;;6220144;23;20889;-80
2021/07/20 14:32:14;;;;;;;11.90;10.83;;;35.60;42.90;;;;;;6224145;23;20415;-79
2021/07/20 14:34:45;;;;;;;11.03;9.90;;;35.50;42.90;;;;;;6225244;23;20480;-81
2021/07/20 14:37:33;;;;;;;11.80;10.80;;;35.70;43.20;;;;;;6223490;23;20455;-79
2021/07/20 14:40:01;;;;;;;11.47;10.30;;;35.80;42.30;;;;;;6223872;23;20389;-82
2021/07/20 14:42:31;;;;;;;11.40;10.40;;;35.90;41.50;;;;;;6223877;23;20415;-83
2021/07/20 14:45:19;;;;;;;11.43;10.43;;;36.20;42.00;;;;;;6222438;23;20401;-82
2021/07/20 14:48:06;;;;;;;11.53;10.63;;;36.20;41.10;;;;;;6215922;23;20453;-83
2021/07/20 14:50:37;;;;;;;12.13;10.93;;;36.10;41.20;;;;;;6228525;23;20424;-84
2021/07/20 14:53:24;;;;;;;10.87;9.87;;;35.90;40.40;;;;;;6225702;23;20409;-83
2021/07/20 14:55:52;;;;;;;12.50;11.13;;;35.70;40.40;;;;;;6220835;23;20528;-79
2021/07/20 14:58:23;;;;;;;11.60;10.47;;;35.50;42.00;;;;;;6219942;23;20753;-80
2021/07/20 15:01:05;;;;;;;10.30;9.50;;;35.50;41.40;;;;;;6223642;23;20783;-83
2021/07/20 15:03:35;;;;;;;12.83;11.73;;;35.50;41.00;;;;;;6222080;23;20393;-81
2021/07/20 15:06:05;;;;;;;11.30;10.30;;;35.40;41.20;;;;;;6222448;23;20409;-79
2021/07/20 15:08:33;;;;;;;13.13;11.93;;;35.30;41.50;;;;;;6220940;23;20393;-79
2021/07/20 15:11:13;;;;;;;12.27;10.97;;;35.00;41.80;;;;;;6221514;23;20406;-80
2021/07/20 15:13:44;;;;;;;12.17;10.17;;;35.00;40.90;;;;;;6218550;23;20927;-79
2021/07/20 15:16:12;;;;;;;10.60;9.70;;;35.20;42.00;;;;;;6220048;23;20445;-79
2021/07/20 15:18:58;;;;;;;10.23;9.13;;;35.70;41.60;;;;;;6219609;23;20745;-78
2021/07/20 15:21:29;;;;;;;12.60;11.60;;;35.80;41.40;;;;;;6218102;23;20560;-78
2021/07/20 15:23:56;;;;;;;11.50;10.50;;;36.20;41.90;;;;;;6218617;23;20734;-78
2021/07/20 15:26:23;;;;;;;11.77;10.57;;;36.80;41.40;;;;;;6218329;23;20421;-78
2021/07/20 15:28:52;;;;;;;12.63;11.50;;;37.50;41.40;;;;;;6219311;23;20413;-78
2021/07/20 15:31:19;;;;;;;10.13;9.33;;;38.00;40.40;;;;;;6218572;23;20413;-79
2021/07/20 15:33:48;;;;;;;11.20;10.30;;;38.60;39.80;;;;;;6219092;23;20408;-79
2021/07/20 15:36:15;;;;;;;11.13;10.23;;;38.80;37.50;;;;;;6218201;23;20445;-79
2021/07/20 15:38:45;;;;;;;10.93;10.03;;;38.30;36.60;;;;;;6219190;23;20411;-78
2021/07/20 15:41:12;;;;;;;11.23;10.23;;;37.70;37.50;;;;;;6219366;23;20390;-79
2021/07/20 15:43:42;;;;;;;11.53;10.43;;;37.20;37.80;;;;;;6218311;23;20416;-78
2021/07/20 15:46:09;;;;;;;12.67;11.37;;;36.80;38.60;;;;;;6219854;23;20512;-78
2021/07/20 15:48:38;;;;;;;12.10;11.07;;;36.30;38.40;;;;;;6219757;23;20413;-79
2021/07/20 15:51:06;;;;;;;11.63;9.60;;;36.20;38.70;;;;;;6220625;23;20752;-78
2021/07/20 15:53:34;;;;;;;9.67;8.87;;;35.90;38.10;;;;;;6221009;23;20463;-78
2021/07/20 15:56:04;;;;;;;12.50;11.20;;;35.40;38.70;;;;;;6220319;23;20451;-79
2021/07/20 15:58:31;;;;;;;11.77;10.67;;;34.90;39.80;;;;;;6220737;23;20868;-79
2021/07/20 16:01:00;;;;;;;12.03;10.83;;;34.70;40.10;;;;;;6220580;23;20405;-78